createdAt,value
2022-10-18T00:02:22.433Z,34.77
2022-10-18T00:05:50.584Z,33.37
2022-10-18T00:09:15.346Z,34.47
2022-10-18T00:12:39.733Z,31.93
2022-10-18T00:16:05.946Z,35.80
2022-10-18T00:19:31.400Z,36.20
2022-10-18T00:22:56.296Z,37.37
2022-10-18T00:26:21.655Z,36.17
2022-10-18T00:29:45.294Z,35.73
2022-10-18T00:33:09.030Z,32.67
2022-10-18T00:36:35.629Z,30.03
2022-10-18T00:40:00.348Z,33.90
2022-10-18T00:43:24.021Z,30.97
2022-10-18T00:46:49.641Z,41.00
2022-10-18T00:50:14.403Z,35.63
2022-10-18T00:53:40.470Z,34.73
2022-10-18T00:57:04.442Z,33.60
2022-10-18T01:00:28.157Z,31.27
2022-10-18T01:03:53.605Z,34.40
2022-10-18T01:07:39.786Z,40.70
2022-10-18T01:11:29.361Z,34.43
2022-10-18T01:15:04.187Z,36.10
2022-10-18T01:18:33.346Z,42.27
2022-10-18T01:22:01.425Z,35.63
2022-10-18T01:25:40.402Z,36.97
2022-10-18T01:29:16.318Z,40.33
2022-10-18T01:32:47.113Z,38.93
2022-10-18T01:36:22.241Z,40.93
2022-10-18T01:39:48.361Z,38.43
2022-10-18T01:43:13.654Z,40.83
2022-10-18T01:46:42.605Z,33.03
2022-10-18T01:50:09.453Z,35.50
2022-10-18T01:53:35.052Z,32.07
2022-10-18T01:57:04.543Z,34.10
2022-10-18T02:00:36.859Z,32.63
2022-10-18T02:04:08.073Z,33.57
2022-10-18T02:07:38.303Z,30.53
2022-10-18T02:11:05.155Z,34.20
2022-10-18T02:14:30.028Z,33.30
2022-10-18T02:17:55.414Z,32.97
2022-10-18T02:21:22.133Z,31.67
2022-10-18T02:24:53.003Z,32.60
2022-10-18T02:28:17.319Z,33.83
2022-10-18T02:31:45.760Z,34.83
2022-10-18T02:35:16.670Z,35.93
2022-10-18T02:38:43.244Z,32.60
2022-10-18T02:42:10.960Z,38.60
2022-10-18T02:45:35.262Z,34.60
2022-10-18T02:48:59.099Z,35.90
2022-10-18T02:52:23.306Z,36.20
2022-10-18T02:55:47.129Z,27.97
2022-10-18T02:59:12.694Z,26.03
2022-10-18T03:02:37.177Z,29.10
2022-10-18T03:06:01.206Z,29.60
2022-10-18T03:09:25.325Z,27.57
2022-10-18T03:12:49.205Z,27.77
2022-10-18T03:16:14.569Z,28.73
2022-10-18T03:19:39.746Z,26.87
2022-10-18T03:23:04.275Z,25.30
2022-10-18T03:26:28.216Z,26.43
2022-10-18T03:29:52.210Z,24.03
2022-10-18T03:33:17.598Z,23.77
2022-10-18T03:36:41.477Z,26.30
2022-10-18T03:40:06.498Z,27.07
2022-10-18T03:43:30.342Z,26.57
2022-10-18T03:46:54.350Z,26.90
2022-10-18T03:50:20.336Z,25.10
2022-10-18T03:53:44.216Z,25.67
2022-10-18T03:57:08.306Z,28.57
2022-10-18T04:00:35.729Z,30.13
2022-10-18T04:03:59.302Z,29.80
2022-10-18T04:07:25.920Z,33.50
2022-10-18T04:10:50.308Z,32.50
2022-10-18T04:14:16.688Z,35.37
2022-10-18T04:17:40.256Z,30.73
2022-10-18T04:21:03.790Z,29.30
2022-10-18T04:24:28.804Z,33.53
2022-10-18T04:27:55.601Z,31.53
2022-10-18T04:31:19.317Z,38.33
2022-10-18T04:34:45.382Z,36.67
2022-10-18T04:38:09.310Z,38.10
2022-10-18T04:41:34.632Z,39.67
2022-10-18T04:44:58.375Z,35.83
2022-10-18T04:48:22.482Z,34.60
2022-10-18T04:51:46.601Z,37.67
2022-10-18T04:55:10.618Z,40.73
2022-10-18T04:58:35.725Z,42.37
2022-10-18T05:01:59.407Z,43.23
2022-10-18T05:05:27.033Z,40.93
2022-10-18T05:08:57.364Z,43.13
2022-10-18T05:12:22.152Z,42.90
2022-10-18T05:15:48.732Z,38.73
2022-10-18T05:19:12.432Z,41.53
2022-10-18T05:22:36.336Z,36.40
2022-10-18T05:26:03.708Z,34.53
2022-10-18T05:32:57.867Z,36.53
2022-10-18T05:36:22.640Z,37.30
2022-10-18T05:39:46.747Z,37.73
2022-10-18T05:43:10.467Z,39.00
2022-10-18T05:46:35.313Z,37.70
2022-10-18T05:50:00.235Z,34.10
2022-10-18T05:53:36.348Z,35.83
2022-10-18T05:57:00.807Z,37.63
2022-10-18T06:00:24.589Z,36.97
2022-10-18T06:03:48.714Z,40.83
2022-10-18T06:07:14.083Z,38.50
2022-10-18T06:10:40.797Z,38.63
2022-10-18T06:14:05.083Z,37.27
2022-10-18T06:17:31.685Z,36.23
2022-10-18T06:20:58.874Z,37.70
2022-10-18T06:24:23.827Z,38.97
2022-10-18T06:27:47.398Z,31.70
2022-10-18T06:31:12.408Z,37.67
2022-10-18T06:34:36.043Z,35.23
2022-10-18T06:37:59.574Z,40.80
2022-10-18T06:41:24.857Z,32.57
2022-10-18T06:44:49.739Z,36.87
2022-10-18T06:48:13.552Z,37.57
2022-10-18T06:51:38.242Z,34.83
2022-10-18T06:55:04.134Z,38.13
2022-10-18T06:58:31.401Z,35.57
2022-10-18T07:01:54.958Z,32.33
2022-10-18T07:05:18.789Z,30.27
2022-10-18T07:08:42.764Z,28.90
2022-10-18T07:12:07.331Z,36.03
2022-10-18T07:18:57.098Z,28.00
2022-10-18T07:22:20.648Z,32.03
2022-10-18T07:25:44.225Z,35.40
2022-10-18T07:29:09.838Z,31.57
2022-10-18T07:32:34.841Z,29.00
2022-10-18T07:36:02.637Z,32.83
2022-10-18T07:39:26.253Z,33.00
2022-10-18T07:42:49.822Z,27.07
2022-10-18T07:46:14.418Z,31.27
2022-10-18T07:49:39.390Z,29.90
2022-10-18T07:53:02.920Z,29.53
2022-10-18T07:56:26.562Z,28.87
2022-10-18T07:59:56.342Z,38.33
2022-10-18T08:03:20.717Z,27.33
2022-10-18T08:06:45.696Z,29.80
2022-10-18T08:10:10.029Z,27.27
2022-10-18T08:13:34.191Z,29.60
2022-10-18T08:16:57.848Z,39.40
2022-10-18T08:20:30.357Z,29.90
2022-10-18T08:23:56.142Z,30.40
2022-10-18T08:27:19.850Z,31.00
2022-10-18T08:30:43.415Z,31.57
2022-10-18T08:34:06.946Z,38.33
2022-10-18T08:37:30.995Z,25.03
2022-10-18T08:40:56.100Z,27.17
2022-10-18T08:44:21.504Z,24.03
2022-10-18T08:47:49.025Z,22.13
2022-10-18T08:51:19.626Z,24.97
2022-10-18T08:54:53.589Z,22.67
2022-10-18T08:58:20.849Z,27.63
2022-10-18T09:02:01.627Z,25.63
2022-10-18T09:05:31.816Z,26.50
2022-10-18T09:09:12.258Z,22.90
2022-10-18T09:12:55.673Z,26.63
2022-10-18T09:16:27.588Z,25.43
2022-10-18T09:20:01.922Z,28.17
2022-10-18T09:23:39.314Z,32.00
2022-10-18T09:27:06.976Z,24.43
2022-10-18T09:30:42.492Z,24.57
2022-10-18T09:34:12.318Z,23.70
2022-10-18T09:37:36.449Z,25.27
2022-10-18T09:41:03.332Z,26.87
2022-10-18T09:44:30.098Z,26.20
2022-10-18T09:48:02.101Z,22.37
2022-10-18T09:51:31.661Z,24.70
2022-10-18T09:54:59.079Z,18.57
2022-10-18T09:58:25.302Z,22.67
2022-10-18T10:01:48.888Z,21.27
2022-10-18T10:05:14.236Z,21.10
2022-10-18T10:08:42.965Z,21.90
2022-10-18T10:12:06.709Z,26.77
2022-10-18T10:15:35.373Z,28.20
2022-10-18T10:19:03.047Z,27.07
2022-10-18T10:22:30.438Z,27.10
2022-10-18T10:25:57.215Z,27.07
2022-10-18T10:29:51.275Z,25.57
2022-10-18T10:33:33.460Z,28.13
2022-10-18T10:36:57.003Z,27.80
2022-10-18T10:40:26.475Z,28.87
2022-10-18T10:43:53.557Z,28.97
2022-10-18T10:47:29.236Z,25.50
2022-10-18T10:51:00.949Z,35.43
2022-10-18T10:54:27.442Z,38.17
2022-10-18T10:57:53.271Z,34.67
2022-10-18T11:01:34.053Z,39.70
2022-10-18T11:05:16.030Z,32.80
2022-10-18T11:08:43.350Z,30.63
2022-10-18T11:12:19.600Z,27.80
2022-10-18T11:15:48.222Z,34.60
2022-10-18T11:19:33.854Z,30.83
2022-10-18T11:23:03.777Z,31.43
2022-10-18T11:26:42.002Z,34.67
2022-10-18T11:30:30.603Z,34.33
2022-10-18T11:34:10.188Z,32.70
2022-10-18T11:37:48.796Z,28.37
2022-10-18T11:41:26.060Z,23.47
2022-10-18T11:44:58.906Z,28.50
2022-10-18T11:48:50.074Z,31.00
2022-10-18T11:52:20.229Z,31.67
2022-10-18T11:55:56.120Z,23.03
2022-10-18T11:59:34.132Z,17.30
2022-10-18T12:03:23.430Z,24.47
2022-10-18T12:06:49.629Z,20.23
2022-10-18T12:10:26.329Z,17.63
2022-10-18T12:14:05.488Z,20.23
2022-10-18T12:17:44.024Z,15.90
2022-10-18T12:21:12.669Z,15.33
2022-10-18T12:24:37.933Z,17.63
2022-10-18T12:28:06.935Z,18.27
2022-10-18T12:31:37.814Z,20.90
2022-10-18T12:35:05.691Z,17.87
2022-10-18T12:38:31.555Z,18.47
2022-10-18T12:41:56.625Z,18.07
2022-10-18T12:45:29.166Z,17.60
2022-10-18T12:49:05.089Z,15.37
2022-10-18T12:52:31.874Z,12.43
2022-10-18T12:55:55.777Z,13.30
2022-10-18T12:59:53.719Z,11.10
2022-10-18T13:04:00.639Z,11.97
2022-10-18T13:07:43.103Z,13.73
2022-10-18T13:11:30.257Z,11.37
2022-10-18T13:15:12.545Z,13.57
2022-10-18T13:18:54.101Z,15.60
2022-10-18T13:22:29.481Z,13.60
2022-10-18T13:26:03.668Z,11.47
2022-10-18T13:29:46.555Z,9.57
2022-10-18T13:33:27.385Z,15.50
2022-10-18T13:36:58.392Z,9.50
2022-10-18T13:40:26.792Z,11.50
2022-10-18T13:44:18.613Z,10.30
2022-10-18T13:47:42.220Z,13.30
2022-10-18T13:51:24.257Z,13.20
2022-10-18T13:55:02.329Z,10.53
2022-10-18T13:58:35.099Z,11.40
2022-10-18T14:02:36.452Z,12.60
2022-10-18T14:06:09.620Z,8.47
2022-10-18T14:09:45.074Z,15.37
2022-10-18T14:13:18.878Z,11.60
2022-10-18T14:16:48.450Z,10.10
2022-10-18T14:20:27.222Z,12.37
2022-10-18T14:23:54.185Z,10.57
2022-10-18T14:27:19.963Z,9.03
2022-10-18T14:30:55.509Z,8.13
2022-10-18T14:34:19.293Z,14.53
2022-10-18T14:37:44.892Z,8.50
2022-10-18T14:41:16.338Z,14.33
2022-10-18T14:44:39.902Z,7.10
2022-10-18T14:48:07.845Z,9.80
2022-10-18T14:51:35.981Z,10.67
2022-10-18T14:55:03.122Z,6.97
2022-10-18T14:58:26.842Z,10.43
2022-10-18T15:01:56.546Z,13.57
2022-10-18T15:05:22.782Z,7.67
2022-10-18T15:08:48.631Z,9.93
2022-10-18T15:12:15.920Z,11.33
2022-10-18T15:15:40.809Z,7.07
2022-10-18T15:19:06.793Z,10.60
2022-10-18T15:22:33.315Z,9.40
2022-10-18T15:26:04.087Z,13.60
2022-10-18T15:29:35.261Z,11.00
2022-10-18T15:33:01.206Z,7.83
2022-10-18T15:36:31.076Z,16.23
2022-10-18T15:40:20.384Z,12.47
2022-10-18T15:43:44.044Z,9.83
2022-10-18T15:47:21.748Z,7.63
2022-10-18T15:50:47.965Z,9.00
2022-10-18T15:54:18.977Z,19.43
2022-10-18T15:57:42.562Z,8.10
2022-10-18T16:01:08.297Z,8.23
2022-10-18T16:04:34.321Z,9.30
2022-10-18T16:07:58.082Z,7.53
2022-10-18T16:11:24.309Z,8.87
2022-10-18T16:14:47.922Z,7.13
2022-10-18T16:18:17.047Z,9.13
2022-10-18T16:21:42.841Z,9.30
2022-10-18T16:25:07.089Z,7.77
2022-10-18T16:28:31.868Z,11.90
2022-10-18T16:31:57.967Z,18.60
2022-10-18T16:35:21.805Z,12.43
2022-10-18T16:38:48.053Z,15.40
2022-10-18T16:42:11.607Z,10.20
2022-10-18T16:45:37.613Z,9.67
2022-10-18T16:49:01.878Z,13.47
2022-10-18T16:52:25.562Z,24.43
2022-10-18T16:55:54.319Z,11.23
2022-10-18T16:59:23.961Z,20.10
2022-10-18T17:02:51.294Z,26.13
2022-10-18T17:06:17.371Z,31.23
2022-10-18T17:09:40.931Z,10.40
2022-10-18T17:13:05.889Z,18.90
2022-10-18T17:16:32.004Z,11.00
2022-10-18T17:19:55.810Z,15.33
2022-10-18T17:23:19.663Z,27.40
2022-10-18T17:26:43.370Z,18.40
2022-10-18T17:30:09.711Z,18.17
2022-10-18T17:33:33.285Z,14.20
2022-10-18T17:36:56.912Z,14.90
2022-10-18T17:40:23.772Z,12.03
2022-10-18T17:43:47.957Z,11.93
2022-10-18T17:47:13.147Z,10.53
2022-10-18T17:50:36.714Z,8.83
2022-10-18T17:54:00.333Z,14.20
2022-10-18T17:57:24.198Z,9.40
2022-10-18T18:00:47.769Z,14.40
2022-10-18T18:04:13.418Z,8.00
2022-10-18T18:07:37.180Z,13.50
2022-10-18T18:11:00.809Z,9.30
2022-10-18T18:14:24.699Z,6.60
2022-10-18T18:17:56.686Z,12.50
2022-10-18T18:21:23.455Z,13.70
2022-10-18T18:24:47.021Z,15.63
2022-10-18T18:28:10.753Z,11.70
2022-10-18T18:31:38.794Z,12.47
2022-10-18T18:35:06.845Z,12.40
2022-10-18T18:38:32.620Z,15.40
2022-10-18T18:41:57.170Z,13.80
2022-10-18T18:45:20.706Z,9.17
2022-10-18T18:48:44.447Z,12.50
2022-10-18T18:52:08.462Z,11.33
2022-10-18T18:55:34.514Z,16.33
2022-10-18T18:59:00.240Z,9.17
2022-10-18T19:02:24.026Z,14.63
2022-10-18T19:05:47.702Z,12.00
2022-10-18T19:09:19.074Z,10.83
2022-10-18T19:12:44.058Z,20.10
2022-10-18T19:16:26.086Z,12.10
2022-10-18T19:19:50.414Z,12.57
2022-10-18T19:23:14.349Z,16.73
2022-10-18T19:26:44.515Z,10.43
2022-10-18T19:30:12.269Z,16.63
2022-10-18T19:33:48.194Z,10.47
2022-10-18T19:37:20.101Z,10.90
2022-10-18T19:40:43.688Z,13.77
2022-10-18T19:44:07.581Z,17.60
2022-10-18T19:47:32.644Z,8.40
2022-10-18T19:50:56.240Z,14.93
2022-10-18T19:54:19.841Z,10.57
2022-10-18T19:57:43.591Z,14.80
2022-10-18T20:01:07.169Z,14.70
2022-10-18T20:04:34.702Z,9.00
2022-10-18T20:07:58.705Z,9.60
2022-10-18T20:11:23.690Z,10.63
2022-10-18T20:14:47.226Z,10.53
2022-10-18T20:18:11.042Z,8.67
2022-10-18T20:21:37.618Z,10.50
2022-10-18T20:25:01.277Z,21.30
2022-10-18T20:28:25.374Z,9.50
2022-10-18T20:31:48.978Z,11.83
2022-10-18T20:35:12.738Z,11.13
2022-10-18T20:38:39.332Z,14.70
2022-10-18T20:42:02.908Z,10.43
2022-10-18T20:45:26.552Z,10.33
2022-10-18T20:48:51.353Z,7.87
2022-10-18T20:52:15.199Z,12.20
2022-10-18T20:55:40.222Z,8.27
2022-10-18T20:59:06.338Z,8.53
2022-10-18T21:02:30.030Z,11.90
2022-10-18T21:05:53.576Z,13.50
2022-10-18T21:09:19.274Z,10.43
2022-10-18T21:12:44.316Z,12.63
2022-10-18T21:16:09.122Z,10.97
2022-10-18T21:19:32.764Z,14.27
2022-10-18T21:22:57.286Z,8.60
2022-10-18T21:26:23.903Z,6.33
2022-10-18T21:29:50.622Z,10.13
2022-10-18T21:33:14.321Z,9.10
2022-10-18T21:36:39.221Z,12.83
2022-10-18T21:40:05.799Z,10.37
2022-10-18T21:43:30.031Z,11.73
2022-10-18T21:46:56.856Z,10.93
2022-10-18T21:50:20.625Z,11.33
2022-10-18T21:53:45.497Z,11.90
2022-10-18T21:57:09.666Z,10.80
2022-10-18T22:00:33.602Z,11.33
2022-10-18T22:04:00.682Z,9.13
2022-10-18T22:07:24.250Z,14.73
2022-10-18T22:10:48.641Z,16.57
2022-10-18T22:14:12.981Z,10.20
2022-10-18T22:17:36.927Z,13.93
2022-10-18T22:21:04.894Z,11.50
2022-10-18T22:24:28.748Z,10.63
2022-10-18T22:27:52.714Z,10.60
2022-10-18T22:31:18.147Z,12.87
2022-10-18T22:34:42.894Z,10.43
2022-10-18T22:38:08.078Z,19.00
2022-10-18T22:41:31.974Z,11.07
2022-10-18T22:44:55.705Z,11.50
2022-10-18T22:48:19.724Z,10.73
2022-10-18T22:51:43.736Z,12.63
2022-10-18T22:55:09.686Z,13.83
2022-10-18T22:58:34.254Z,10.47
2022-10-18T23:01:58.799Z,8.60
2022-10-18T23:05:26.369Z,10.33
2022-10-18T23:08:53.553Z,8.20
2022-10-18T23:12:18.484Z,13.10
2022-10-18T23:15:44.105Z,14.70
2022-10-18T23:19:07.744Z,9.67
2022-10-18T23:22:31.991Z,15.50
2022-10-18T23:25:56.729Z,20.97
2022-10-18T23:29:22.386Z,8.00
2022-10-18T23:32:46.032Z,18.40
2022-10-18T23:36:10.354Z,9.83
2022-10-18T23:39:34.726Z,13.43
2022-10-18T23:42:58.877Z,13.17
2022-10-18T23:46:26.228Z,11.33
2022-10-18T23:49:53.109Z,14.17
2022-10-18T23:53:16.866Z,11.13
2022-10-18T23:56:40.764Z,12.40
